sensor_id;sensor_type;location;lat;lon;timestamp;pressure;altitude;pressure_sealevel;temperature;humidity
48614;BME280;34408;51.426;5.444;2023-03-03T00:00:51;102307.06;;;6.93;54.24
48614;BME280;34408;51.426;5.444;2023-03-03T00:03:22;102319.41;;;6.94;54.39
48614;BME280;34408;51.426;5.444;2023-03-03T00:05:51;102319.59;;;6.93;54.23
48614;BME280;34408;51.426;5.444;2023-03-03T00:08:20;102316.91;;;6.93;54.55
48614;BME280;34408;51.426;5.444;2023-03-03T00:10:48;102316.25;;;6.91;54.15
48614;BME280;34408;51.426;5.444;2023-03-03T00:13:17;102314.72;;;6.88;54.52
48614;BME280;34408;51.426;5.444;2023-03-03T00:15:46;102315.56;;;6.89;54.29
48614;BME280;34408;51.426;5.444;2023-03-03T00:18:25;102321.06;;;6.87;54.06
48614;BME280;34408;51.426;5.444;2023-03-03T00:20:56;102315.56;;;6.89;54.68
48614;BME280;34408;51.426;5.444;2023-03-03T00:23:29;102325.41;;;6.88;54.46
48614;BME280;34408;51.426;5.444;2023-03-03T00:25:57;102319.41;;;6.86;54.66
48614;BME280;34408;51.426;5.444;2023-03-03T00:28:28;102323.22;;;6.83;54.44
48614;BME280;34408;51.426;5.444;2023-03-03T00:30:57;102325.06;;;6.83;54.69
48614;BME280;34408;51.426;5.444;2023-03-03T00:33:30;102314.34;;;6.75;54.88
48614;BME280;34408;51.426;5.444;2023-03-03T00:36:19;102331.72;;;6.79;54.68
48614;BME280;34408;51.426;5.444;2023-03-03T00:38:48;102337.72;;;6.73;55.27
48614;BME280;34408;51.426;5.444;2023-03-03T00:41:20;102340.38;;;6.73;55.32
48614;BME280;34408;51.426;5.444;2023-03-03T00:43:49;102327.00;;;6.65;54.91
48614;BME280;34408;51.426;5.444;2023-03-03T00:46:19;102332.00;;;6.68;55.28
48614;BME280;34408;51.426;5.444;2023-03-03T00:48:49;102336.69;;;6.66;55.18
48614;BME280;34408;51.426;5.444;2023-03-03T00:51:25;102340.34;;;6.65;55.34
48614;BME280;34408;51.426;5.444;2023-03-03T00:53:53;102341.34;;;6.64;54.95
48614;BME280;34408;51.426;5.444;2023-03-03T00:56:21;102337.69;;;6.65;55.14
48614;BME280;34408;51.426;5.444;2023-03-03T00:58:49;102338.81;;;6.62;55.43
48614;BME280;34408;51.426;5.444;2023-03-03T01:01:18;102340.81;;;6.60;54.99
48614;BME280;34408;51.426;5.444;2023-03-03T01:03:45;102346.16;;;6.60;55.02
48614;BME280;34408;51.426;5.444;2023-03-03T01:06:14;102347.47;;;6.56;55.12
48614;BME280;34408;51.426;5.444;2023-03-03T01:08:42;102348.47;;;6.55;55.11
48614;BME280;34408;51.426;5.444;2023-03-03T01:11:12;102351.63;;;6.50;55.19
48614;BME280;34408;51.426;5.444;2023-03-03T01:13:44;102348.94;;;6.50;55.17
48614;BME280;34408;51.426;5.444;2023-03-03T01:16:14;102355.44;;;6.48;55.50
48614;BME280;34408;51.426;5.444;2023-03-03T01:18:42;102347.44;;;6.48;55.35
48614;BME280;34408;51.426;5.444;2023-03-03T01:21:10;102358.28;;;6.46;55.30
48614;BME280;34408;51.426;5.444;2023-03-03T01:23:39;102359.25;;;6.45;55.07
48614;BME280;34408;51.426;5.444;2023-03-03T01:26:07;102356.06;;;6.42;55.31
48614;BME280;34408;51.426;5.444;2023-03-03T01:28:35;102359.06;;;6.39;55.57
48614;BME280;34408;51.426;5.444;2023-03-03T01:31:04;102359.06;;;6.39;55.46
48614;BME280;34408;51.426;5.444;2023-03-03T01:33:33;102363.41;;;6.40;55.23
48614;BME280;34408;51.426;5.444;2023-03-03T01:36:02;102362.19;;;6.34;55.14
48614;BME280;34408;51.426;5.444;2023-03-03T01:38:30;102368.91;;;6.38;55.33
48614;BME280;34408;51.426;5.444;2023-03-03T01:41:00;102354.34;;;6.33;55.04
48614;BME280;34408;51.426;5.444;2023-03-03T01:43:29;102358.38;;;6.37;55.23
48614;BME280;34408;51.426;5.444;2023-03-03T01:46:28;102363.72;;;6.37;55.05
48614;BME280;34408;51.426;5.444;2023-03-03T01:49:00;102367.06;;;6.39;55.00
48614;BME280;34408;51.426;5.444;2023-03-03T01:51:32;102363.88;;;6.35;55.13
48614;BME280;34408;51.426;5.444;2023-03-03T01:54:02;102371.19;;;6.33;55.29
48614;BME280;34408;51.426;5.444;2023-03-03T01:56:31;102371.34;;;6.32;55.05
48614;BME280;34408;51.426;5.444;2023-03-03T01:59:02;102373.88;;;6.33;55.34
48614;BME280;34408;51.426;5.444;2023-03-03T02:01:32;102368.22;;;6.36;55.29
48614;BME280;34408;51.426;5.444;2023-03-03T02:04:00;102369.38;;;6.34;55.22
48614;BME280;34408;51.426;5.444;2023-03-03T02:06:32;102364.03;;;6.34;55.06
48614;BME280;34408;51.426;5.444;2023-03-03T02:09:06;102359.00;;;6.31;55.14
48614;BME280;34408;51.426;5.444;2023-03-03T02:11:39;102361.84;;;6.29;55.17
48614;BME280;34408;51.426;5.444;2023-03-03T02:14:09;102357.47;;;6.28;55.35
48614;BME280;34408;51.426;5.444;2023-03-03T02:16:37;102358.31;;;6.29;55.11
48614;BME280;34408;51.426;5.444;2023-03-03T02:19:10;102363.50;;;6.30;54.73
48614;BME280;34408;51.426;5.444;2023-03-03T02:21:39;102358.47;;;6.27;54.87
48614;BME280;34408;51.426;5.444;2023-03-03T02:24:11;102353.97;;;6.28;54.90
48614;BME280;34408;51.426;5.444;2023-03-03T02:26:44;102362.97;;;6.27;54.98
48614;BME280;34408;51.426;5.444;2023-03-03T02:29:12;102367.16;;;6.29;54.72
48614;BME280;34408;51.426;5.444;2023-03-03T02:31:40;102368.00;;;6.30;54.83
48614;BME280;34408;51.426;5.444;2023-03-03T02:34:08;102361.16;;;6.27;54.64
48614;BME280;34408;51.426;5.444;2023-03-03T02:36:38;102372.66;;;6.28;54.57
48614;BME280;34408;51.426;5.444;2023-03-03T02:39:08;102370.84;;;6.28;54.60
48614;BME280;34408;51.426;5.444;2023-03-03T02:41:40;102370.00;;;6.28;54.72
48614;BME280;34408;51.426;5.444;2023-03-03T02:44:12;102369.47;;;6.24;54.79
48614;BME280;34408;51.426;5.444;2023-03-03T02:46:43;102366.97;;;6.23;54.69
48614;BME280;34408;51.426;5.444;2023-03-03T02:49:13;102367.94;;;6.22;54.78
48614;BME280;34408;51.426;5.444;2023-03-03T02:51:42;102376.13;;;6.20;54.68
48614;BME280;34408;51.426;5.444;2023-03-03T02:54:11;102369.09;;;6.19;54.67
48614;BME280;34408;51.426;5.444;2023-03-03T02:56:39;102367.28;;;6.19;54.82
48614;BME280;34408;51.426;5.444;2023-03-03T02:59:07;102371.78;;;6.19;54.59
48614;BME280;34408;51.426;5.444;2023-03-03T03:01:37;102364.22;;;6.14;54.64
48614;BME280;34408;51.426;5.444;2023-03-03T03:04:06;102364.53;;;6.11;54.64
48614;BME280;34408;51.426;5.444;2023-03-03T03:06:35;102369.03;;;6.11;54.64
48614;BME280;34408;51.426;5.444;2023-03-03T03:09:04;102369.19;;;6.09;54.63
48614;BME280;34408;51.426;5.444;2023-03-03T03:11:32;102372.69;;;6.10;54.42
48614;BME280;34408;51.426;5.444;2023-03-03T03:14:00;102371.88;;;6.09;54.50
48614;BME280;34408;51.426;5.444;2023-03-03T03:16:28;102375.38;;;6.10;54.65
48614;BME280;34408;51.426;5.444;2023-03-03T03:19:00;102375.38;;;6.10;54.52
48614;BME280;34408;51.426;5.444;2023-03-03T03:21:28;102375.38;;;6.10;54.50
48614;BME280;34408;51.426;5.444;2023-03-03T03:23:57;102378.19;;;6.08;54.25
48614;BME280;34408;51.426;5.444;2023-03-03T03:26:25;102382.22;;;6.12;54.32
48614;BME280;34408;51.426;5.444;2023-03-03T03:28:52;102387.88;;;6.09;54.55
48614;BME280;34408;51.426;5.444;2023-03-03T03:31:20;102389.88;;;6.07;54.35
48614;BME280;34408;51.426;5.444;2023-03-03T03:33:48;102396.03;;;6.08;54.59
48614;BME280;34408;51.426;5.444;2023-03-03T03:36:18;102395.19;;;6.07;54.54
48614;BME280;34408;51.426;5.444;2023-03-03T03:38:46;102387.19;;;6.07;54.60
48614;BME280;34408;51.426;5.444;2023-03-03T03:41:14;102392.69;;;6.06;54.82
48614;BME280;34408;51.426;5.444;2023-03-03T03:43:41;102392.69;;;6.06;54.39
48614;BME280;34408;51.426;5.444;2023-03-03T03:46:09;102399.00;;;6.05;54.62
48614;BME280;34408;51.426;5.444;2023-03-03T03:48:37;102396.34;;;6.05;54.50
48614;BME280;34408;51.426;5.444;2023-03-03T03:51:05;102388.19;;;6.06;54.73
48614;BME280;34408;51.426;5.444;2023-03-03T03:53:34;102388.03;;;6.08;54.65
48614;BME280;34408;51.426;5.444;2023-03-03T03:56:02;102393.53;;;6.06;54.60
48614;BME280;34408;51.426;5.444;2023-03-03T03:58:30;102385.38;;;6.08;54.44
48614;BME280;34408;51.426;5.444;2023-03-03T04:01:01;102392.53;;;6.07;54.61
48614;BME280;34408;51.426;5.444;2023-03-03T04:03:29;102391.00;;;6.05;54.40
48614;BME280;34408;51.426;5.444;2023-03-03T04:05:57;102396.34;;;6.05;54.73
48614;BME280;34408;51.426;5.444;2023-03-03T04:08:24;102395.50;;;6.04;54.68
48614;BME280;34408;51.426;5.444;2023-03-03T04:10:53;102390.47;;;6.01;54.67
48614;BME280;34408;51.426;5.444;2023-03-03T04:13:21;102395.97;;;6.00;55.15
48614;BME280;34408;51.426;5.444;2023-03-03T04:15:49;102402.97;;;6.01;54.67
48614;BME280;34408;51.426;5.444;2023-03-03T04:18:17;102397.66;;;6.01;55.11
48614;BME280;34408;51.426;5.444;2023-03-03T04:20:45;102399.63;;;5.99;55.07
48614;BME280;34408;51.426;5.444;2023-03-03T04:23:12;102401.47;;;5.98;55.01
48614;BME280;34408;51.426;5.444;2023-03-03T04:25:40;102406.78;;;5.98;54.99
48614;BME280;34408;51.426;5.444;2023-03-03T04:28:09;102396.13;;;5.98;55.16
48614;BME280;34408;51.426;5.444;2023-03-03T04:30:37;102403.28;;;5.98;54.67
48614;BME280;34408;51.426;5.444;2023-03-03T04:33:05;102401.63;;;5.97;54.99
48614;BME280;34408;51.426;5.444;2023-03-03T04:35:32;102399.78;;;5.97;55.04
48614;BME280;34408;51.426;5.444;2023-03-03T04:38:00;102400.78;;;5.96;55.07
48614;BME280;34408;51.426;5.444;2023-03-03T04:40:28;102396.44;;;5.95;55.12
48614;BME280;34408;51.426;5.444;2023-03-03T04:42:56;102408.41;;;5.91;55.22
48614;BME280;34408;51.426;5.444;2023-03-03T04:45:25;102405.03;;;5.89;55.40
48614;BME280;34408;51.426;5.444;2023-03-03T04:47:53;102408.69;;;5.88;55.30
48614;BME280;34408;51.426;5.444;2023-03-03T04:50:20;102406.72;;;5.90;55.27
48614;BME280;34408;51.426;5.444;2023-03-03T04:52:48;102408.56;;;5.90;55.62
48614;BME280;34408;51.426;5.444;2023-03-03T04:55:16;102410.38;;;5.89;55.50
48614;BME280;34408;51.426;5.444;2023-03-03T04:57:44;102420.91;;;5.91;55.55
48614;BME280;34408;51.426;5.444;2023-03-03T05:00:15;102419.22;;;5.90;55.39
48614;BME280;34408;51.426;5.444;2023-03-03T05:02:46;102415.84;;;5.87;55.08
48614;BME280;34408;51.426;5.444;2023-03-03T05:05:14;102406.91;;;5.79;55.76
48614;BME280;34408;51.426;5.444;2023-03-03T05:07:42;102413.31;;;5.86;55.58
48614;BME280;34408;51.426;5.444;2023-03-03T05:10:10;102422.31;;;5.85;55.48
48614;BME280;34408;51.426;5.444;2023-03-03T05:12:39;102417.13;;;5.83;55.42
48614;BME280;34408;51.426;5.444;2023-03-03T05:15:07;102407.75;;;5.79;55.20
48614;BME280;34408;51.426;5.444;2023-03-03T05:17:35;102426.81;;;5.84;55.38
48614;BME280;34408;51.426;5.444;2023-03-03T05:20:05;102418.97;;;5.83;55.51
48614;BME280;34408;51.426;5.444;2023-03-03T05:22:35;102427.81;;;5.83;55.58
48614;BME280;34408;51.426;5.444;2023-03-03T05:25:04;102406.84;;;5.71;55.42
48614;BME280;34408;51.426;5.444;2023-03-03T05:27:32;102433.81;;;5.85;55.39
48614;BME280;34408;51.426;5.444;2023-03-03T05:30:00;102426.97;;;5.83;55.30
48614;BME280;34408;51.426;5.444;2023-03-03T05:32:27;102432.91;;;5.77;55.54
48614;BME280;34408;51.426;5.444;2023-03-03T05:34:55;102436.72;;;5.74;55.44
48614;BME280;34408;51.426;5.444;2023-03-03T05:37:24;102434.06;;;5.74;55.75
48614;BME280;34408;51.426;5.444;2023-03-03T05:39:52;102435.78;;;5.66;55.34
48614;BME280;34408;51.426;5.444;2023-03-03T05:42:20;102436.94;;;5.63;55.87
48614;BME280;34408;51.426;5.444;2023-03-03T05:44:48;102436.25;;;5.61;55.90
48614;BME280;34408;51.426;5.444;2023-03-03T05:47:16;102434.97;;;5.65;55.76
48614;BME280;34408;51.426;5.444;2023-03-03T05:49:43;102434.97;;;5.65;55.82
48614;BME280;34408;51.426;5.444;2023-03-03T05:52:11;102427.66;;;5.67;55.79
48614;BME280;34408;51.426;5.444;2023-03-03T05:54:41;102427.78;;;5.66;55.47
48614;BME280;34408;51.426;5.444;2023-03-03T05:57:08;102440.69;;;5.70;55.61
48614;BME280;34408;51.426;5.444;2023-03-03T05:59:36;102421.09;;;5.62;55.49
48614;BME280;34408;51.426;5.444;2023-03-03T06:02:04;102437.31;;;5.68;55.80
48614;BME280;34408;51.426;5.444;2023-03-03T06:04:32;102441.75;;;5.77;55.67
48614;BME280;34408;51.426;5.444;2023-03-03T06:07:00;102442.09;;;5.92;55.04
48614;BME280;34408;51.426;5.444;2023-03-03T06:09:28;102444.09;;;6.08;54.60
48614;BME280;34408;51.426;5.444;2023-03-03T06:11:57;102448.41;;;6.27;54.07
48614;BME280;34408;51.426;5.444;2023-03-03T06:14:25;102428.63;;;6.37;53.43
48614;BME280;34408;51.426;5.444;2023-03-03T06:16:53;102439.66;;;6.60;53.33
48614;BME280;34408;51.426;5.444;2023-03-03T06:19:21;102448.19;;;6.64;52.89
48614;BME280;34408;51.426;5.444;2023-03-03T06:21:49;102443.16;;;6.61;53.08
48614;BME280;34408;51.426;5.444;2023-03-03T06:24:16;102449.13;;;6.55;53.02
48614;BME280;34408;51.426;5.444;2023-03-03T06:26:44;102449.22;;;6.45;53.42
48614;BME280;34408;51.426;5.444;2023-03-03T06:29:13;102447.66;;;6.34;53.49
48614;BME280;34408;51.426;5.444;2023-03-03T06:31:41;102451.41;;;6.24;54.04
48614;BME280;34408;51.426;5.444;2023-03-03T06:34:09;102464.38;;;6.18;54.14
48614;BME280;34408;51.426;5.444;2023-03-03T06:36:37;102463.28;;;6.11;54.53
48614;BME280;34408;51.426;5.444;2023-03-03T06:39:05;102471.91;;;6.05;54.69
48614;BME280;34408;51.426;5.444;2023-03-03T06:41:32;102458.09;;;5.92;54.99
48614;BME280;34408;51.426;5.444;2023-03-03T06:44:00;102478.31;;;5.95;54.94
48614;BME280;34408;51.426;5.444;2023-03-03T06:46:29;102476.63;;;5.94;55.00
48614;BME280;34408;51.426;5.444;2023-03-03T06:48:57;102478.75;;;5.90;55.19
48614;BME280;34408;51.426;5.444;2023-03-03T06:51:30;102486.34;;;5.85;55.31
48614;BME280;34408;51.426;5.444;2023-03-03T06:54:01;102485.28;;;5.78;55.39
48614;BME280;34408;51.426;5.444;2023-03-03T06:56:35;102495.94;;;5.78;55.41
48614;BME280;34408;51.426;5.444;2023-03-03T06:59:10;102491.22;;;5.72;55.58
48614;BME280;34408;51.426;5.444;2023-03-03T07:01:41;102499.34;;;5.70;55.88
48614;BME280;34408;51.426;5.444;2023-03-03T07:04:23;102505.97;;;5.66;55.68
48614;BME280;34408;51.426;5.444;2023-03-03T07:06:54;102500.78;;;5.65;55.84
48614;BME280;34408;51.426;5.444;2023-03-03T07:09:23;102497.59;;;5.61;55.78
48614;BME280;34408;51.426;5.444;2023-03-03T07:11:52;102516.66;;;5.66;55.69
48614;BME280;34408;51.426;5.444;2023-03-03T07:14:23;102510.31;;;5.67;55.53
48614;BME280;34408;51.426;5.444;2023-03-03T07:16:55;102509.34;;;5.68;55.60
48614;BME280;34408;51.426;5.444;2023-03-03T07:19:30;102508.69;;;5.84;55.53
48614;BME280;34408;51.426;5.444;2023-03-03T07:22:07;102506.75;;;6.04;54.73
48614;BME280;34408;51.426;5.444;2023-03-03T07:24:39;102504.25;;;6.20;54.34
48614;BME280;34408;51.426;5.444;2023-03-03T07:27:11;102499.28;;;6.43;53.40
48614;BME280;34408;51.426;5.444;2023-03-03T07:29:40;102502.78;;;6.61;53.37
48614;BME280;34408;51.426;5.444;2023-03-03T07:32:21;102501.75;;;6.80;52.61
48614;BME280;34408;51.426;5.444;2023-03-03T07:34:53;102500.50;;;7.00;51.60
48614;BME280;34408;51.426;5.444;2023-03-03T07:37:28;102506.47;;;7.20;51.47
48614;BME280;34408;51.426;5.444;2023-03-03T07:39:56;102512.59;;;7.38;50.69
48614;BME280;34408;51.426;5.444;2023-03-03T07:42:27;102511.13;;;7.52;51.08
48614;BME280;34408;51.426;5.444;2023-03-03T07:45:01;102519.34;;;7.59;50.25
48614;BME280;34408;51.426;5.444;2023-03-03T07:47:35;102516.28;;;7.45;50.66
48614;BME280;34408;51.426;5.444;2023-03-03T07:50:13;102517.88;;;7.30;51.46
48614;BME280;34408;51.426;5.444;2023-03-03T07:52:47;102525.47;;;7.09;51.88
48614;BME280;34408;51.426;5.444;2023-03-03T07:55:27;102533.22;;;6.94;52.13
48614;BME280;34408;51.426;5.444;2023-03-03T07:58:13;102527.09;;;6.76;52.75
48614;BME280;34408;51.426;5.444;2023-03-03T08:03:55;102531.34;;;6.43;53.89
48614;BME280;34408;51.426;5.444;2023-03-03T08:06:50;102527.22;;;6.31;54.26
48614;BME280;34408;51.426;5.444;2023-03-03T08:09:29;102535.22;;;6.31;54.19
48614;BME280;34408;51.426;5.444;2023-03-03T08:12:01;102542.00;;;6.43;54.02
48614;BME280;34408;51.426;5.444;2023-03-03T08:14:37;102550.53;;;6.64;53.75
48614;BME280;34408;51.426;5.444;2023-03-03T08:17:13;102543.50;;;6.81;52.80
48614;BME280;34408;51.426;5.444;2023-03-03T08:19:44;102553.94;;;6.92;52.61
48614;BME280;34408;51.426;5.444;2023-03-03T08:22:14;102548.69;;;7.08;52.58
48614;BME280;34408;51.426;5.444;2023-03-03T08:24:44;102553.44;;;7.23;52.01
48614;BME280;34408;51.426;5.444;2023-03-03T08:27:11;102558.25;;;7.45;51.46
48614;BME280;34408;51.426;5.444;2023-03-03T08:29:39;102562.16;;;7.59;50.66
48614;BME280;34408;51.426;5.444;2023-03-03T08:32:07;102564.66;;;7.52;51.36
48614;BME280;34408;51.426;5.444;2023-03-03T08:34:35;102560.38;;;7.33;51.28
48614;BME280;34408;51.426;5.444;2023-03-03T08:37:04;102548.00;;;7.06;51.98
48614;BME280;34408;51.426;5.444;2023-03-03T08:39:32;102559.78;;;6.96;52.56
48614;BME280;34408;51.426;5.444;2023-03-03T08:42:00;102566.34;;;6.75;53.35
48614;BME280;34408;51.426;5.444;2023-03-03T08:44:27;102567.41;;;6.65;53.77
48614;BME280;34408;51.426;5.444;2023-03-03T08:46:55;102564.97;;;6.53;53.70
48614;BME280;34408;51.426;5.444;2023-03-03T08:49:23;102573.75;;;6.46;53.83
48614;BME280;34408;51.426;5.444;2023-03-03T08:51:51;102562.22;;;6.28;54.64
48614;BME280;34408;51.426;5.444;2023-03-03T08:54:21;102578.63;;;6.33;54.60
48614;BME280;34408;51.426;5.444;2023-03-03T08:56:49;102571.69;;;6.22;54.74
48614;BME280;34408;51.426;5.444;2023-03-03T08:59:17;102592.44;;;6.28;54.86
48614;BME280;34408;51.426;5.444;2023-03-03T09:01:45;102595.41;;;6.25;54.94
48614;BME280;34408;51.426;5.444;2023-03-03T09:04:13;102584.88;;;6.24;54.86
48614;BME280;34408;51.426;5.444;2023-03-03T09:06:41;102592.88;;;6.24;54.87
48614;BME280;34408;51.426;5.444;2023-03-03T09:09:09;102588.69;;;6.21;55.19
48614;BME280;34408;51.426;5.444;2023-03-03T09:11:38;102595.31;;;6.17;55.33
48614;BME280;34408;51.426;5.444;2023-03-03T09:14:09;102594.78;;;6.13;55.65
48614;BME280;34408;51.426;5.444;2023-03-03T09:16:39;102593.25;;;6.11;55.26
48614;BME280;34408;51.426;5.444;2023-03-03T09:19:21;102597.59;;;6.12;55.63
48614;BME280;34408;51.426;5.444;2023-03-03T09:21:50;102595.22;;;6.09;55.49
48614;BME280;34408;51.426;5.444;2023-03-03T09:24:25;102596.66;;;6.03;55.91
48614;BME280;34408;51.426;5.444;2023-03-03T09:26:55;102600.31;;;6.02;55.98
48614;BME280;34408;51.426;5.444;2023-03-03T09:29:26;102601.59;;;5.98;55.87
48614;BME280;34408;51.426;5.444;2023-03-03T09:31:55;102597.69;;;5.93;55.78
48614;BME280;34408;51.426;5.444;2023-03-03T09:34:30;102594.75;;;5.96;55.89
48614;BME280;34408;51.426;5.444;2023-03-03T09:37:16;102592.06;;;5.96;55.77
48614;BME280;34408;51.426;5.444;2023-03-03T09:39:48;102581.69;;;5.93;55.59
48614;BME280;34408;51.426;5.444;2023-03-03T09:42:49;102599.63;;;6.00;55.81
48614;BME280;34408;51.426;5.444;2023-03-03T09:45:33;102602.00;;;6.03;55.37
48614;BME280;34408;51.426;5.444;2023-03-03T09:48:28;102609.34;;;6.19;55.30
48614;BME280;34408;51.426;5.444;2023-03-03T09:51:12;102608.94;;;6.41;55.03
48614;BME280;34408;51.426;5.444;2023-03-03T09:53:57;102597.94;;;6.62;54.30
48614;BME280;34408;51.426;5.444;2023-03-03T09:56:32;102600.31;;;6.83;53.85
48614;BME280;34408;51.426;5.444;2023-03-03T09:59:13;102602.31;;;7.07;53.16
48614;BME280;34408;51.426;5.444;2023-03-03T10:02:06;102605.50;;;7.36;52.20
48614;BME280;34408;51.426;5.444;2023-03-03T10:04:52;102600.25;;;7.53;51.91
48614;BME280;34408;51.426;5.444;2023-03-03T10:07:37;102608.34;;;7.61;51.39
48614;BME280;34408;51.426;5.444;2023-03-03T10:10:37;102608.56;;;7.75;51.05
48614;BME280;34408;51.426;5.444;2023-03-03T10:13:30;102609.97;;;7.88;50.74
48614;BME280;34408;51.426;5.444;2023-03-03T10:16:16;102610.97;;;7.87;51.08
48614;BME280;34408;51.426;5.444;2023-03-03T10:18:54;102610.97;;;7.87;50.93
48614;BME280;34408;51.426;5.444;2023-03-03T10:21:29;102610.81;;;7.88;51.43
48614;BME280;34408;51.426;5.444;2023-03-03T10:24:04;102599.28;;;7.96;50.65
48614;BME280;34408;51.426;5.444;2023-03-03T10:26:50;102614.38;;;8.05;50.16
48614;BME280;34408;51.426;5.444;2023-03-03T10:29:45;102619.25;;;8.09;50.81
48614;BME280;34408;51.426;5.444;2023-03-03T10:32:47;102611.00;;;7.95;50.92
48614;BME280;34408;51.426;5.444;2023-03-03T10:35:38;102612.66;;;7.88;50.60
48614;BME280;34408;51.426;5.444;2023-03-03T10:38:43;102612.88;;;7.68;52.01
48614;BME280;34408;51.426;5.444;2023-03-03T10:41:23;102615.94;;;7.47;52.62
48614;BME280;34408;51.426;5.444;2023-03-03T10:44:16;102617.31;;;7.26;52.76
48614;BME280;34408;51.426;5.444;2023-03-03T10:49:52;102621.25;;;6.96;53.18
48614;BME280;34408;51.426;5.444;2023-03-03T10:52:31;102623.44;;;6.92;53.57
48614;BME280;34408;51.426;5.444;2023-03-03T10:55:17;102619.22;;;6.90;53.64
48614;BME280;34408;51.426;5.444;2023-03-03T10:57:58;102620.69;;;6.84;54.13
48614;BME280;34408;51.426;5.444;2023-03-03T11:00:34;102614.66;;;6.82;54.01
48614;BME280;34408;51.426;5.444;2023-03-03T11:06:20;102604.28;;;6.79;54.05
48614;BME280;34408;51.426;5.444;2023-03-03T11:08:53;102606.94;;;6.79;54.45
48614;BME280;34408;51.426;5.444;2023-03-03T11:11:28;102609.31;;;6.82;54.20
48614;BME280;34408;51.426;5.444;2023-03-03T11:14:06;102604.81;;;6.82;54.03
48614;BME280;34408;51.426;5.444;2023-03-03T11:16:47;102599.63;;;6.81;54.39
48614;BME280;34408;51.426;5.444;2023-03-03T11:19:27;102604.13;;;6.80;54.68
48614;BME280;34408;51.426;5.444;2023-03-03T11:22:09;102605.13;;;6.79;54.40
48614;BME280;34408;51.426;5.444;2023-03-03T11:24:46;102603.59;;;6.77;55.22
48614;BME280;34408;51.426;5.444;2023-03-03T11:27:38;102604.59;;;6.76;54.70
48614;BME280;34408;51.426;5.444;2023-03-03T11:30:27;102598.25;;;6.77;55.12
48614;BME280;34408;51.426;5.444;2023-03-03T11:33:02;102602.75;;;6.76;54.69
48614;BME280;34408;51.426;5.444;2023-03-03T11:35:37;102585.06;;;6.58;55.32
48614;BME280;34408;51.426;5.444;2023-03-03T11:38:20;102600.00;;;6.68;55.09
48614;BME280;34408;51.426;5.444;2023-03-03T11:40:52;102603.06;;;6.73;55.14
48614;BME280;34408;51.426;5.444;2023-03-03T11:43:26;102605.56;;;6.93;54.44
48614;BME280;34408;51.426;5.444;2023-03-03T11:46:04;102593.97;;;7.10;54.37
48614;BME280;34408;51.426;5.444;2023-03-03T11:48:38;102605.63;;;7.27;54.00
48614;BME280;34408;51.426;5.444;2023-03-03T11:51:13;102595.38;;;7.48;53.35
48614;BME280;34408;51.426;5.444;2023-03-03T11:53:57;102585.97;;;7.70;52.60
48614;BME280;34408;51.426;5.444;2023-03-03T11:56:28;102588.53;;;7.79;52.70
48614;BME280;34408;51.426;5.444;2023-03-03T11:59:06;102587.16;;;7.75;52.21
48614;BME280;34408;51.426;5.444;2023-03-03T12:01:45;102578.94;;;7.69;52.51
48614;BME280;34408;51.426;5.444;2023-03-03T12:04:19;102579.06;;;7.59;52.79
48614;BME280;34408;51.426;5.444;2023-03-03T12:07:02;102581.84;;;7.49;53.33
48614;BME280;34408;51.426;5.444;2023-03-03T12:09:54;102572.94;;;7.41;53.79
48614;BME280;34408;51.426;5.444;2023-03-03T12:12:30;102569.91;;;7.36;54.02
48614;BME280;34408;51.426;5.444;2023-03-03T12:15:05;102581.56;;;7.27;54.36
48614;BME280;34408;51.426;5.444;2023-03-03T12:17:57;102583.84;;;7.22;53.92
48614;BME280;34408;51.426;5.444;2023-03-03T12:20:31;102584.84;;;7.21;54.55
48614;BME280;34408;51.426;5.444;2023-03-03T12:23:14;102577.81;;;7.19;54.56
48614;BME280;34408;51.426;5.444;2023-03-03T12:25:56;102577.50;;;7.23;54.45
48614;BME280;34408;51.426;5.444;2023-03-03T12:28:33;102572.00;;;7.24;54.43
48614;BME280;34408;51.426;5.444;2023-03-03T12:31:14;102561.31;;;7.24;54.63
48614;BME280;34408;51.426;5.444;2023-03-03T12:33:54;102563.16;;;7.24;54.21
48614;BME280;34408;51.426;5.444;2023-03-03T12:39:40;102562.16;;;7.25;54.52
48614;BME280;34408;51.426;5.444;2023-03-03T12:42:17;102558.78;;;7.23;54.76
48614;BME280;34408;51.426;5.444;2023-03-03T12:44:56;102560.09;;;7.18;54.88
48614;BME280;34408;51.426;5.444;2023-03-03T12:47:27;102560.94;;;7.19;54.79
48614;BME280;34408;51.426;5.444;2023-03-03T12:50:06;102549.88;;;7.14;55.40
48614;BME280;34408;51.426;5.444;2023-03-03T12:52:45;102559.47;;;7.25;55.07
48614;BME280;34408;51.426;5.444;2023-03-03T12:55:33;102558.47;;;7.26;54.88
48614;BME280;34408;51.426;5.444;2023-03-03T12:58:11;102557.47;;;7.27;54.44
48614;BME280;34408;51.426;5.444;2023-03-03T13:00:50;102550.97;;;7.29;54.59
48614;BME280;34408;51.426;5.444;2023-03-03T13:03:37;102554.03;;;7.34;54.78
48614;BME280;34408;51.426;5.444;2023-03-03T13:06:26;102551.88;;;7.38;54.85
48614;BME280;34408;51.426;5.444;2023-03-03T13:09:19;102547.50;;;7.37;54.77
48614;BME280;34408;51.426;5.444;2023-03-03T13:12:10;102545.00;;;7.35;54.49
48614;BME280;34408;51.426;5.444;2023-03-03T13:14:46;102557.72;;;7.41;55.31
48614;BME280;34408;51.426;5.444;2023-03-03T13:17:20;102547.34;;;7.38;54.75
48614;BME280;34408;51.426;5.444;2023-03-03T13:19:51;102542.69;;;7.40;54.90
48614;BME280;34408;51.426;5.444;2023-03-03T13:22:32;102546.19;;;7.41;54.56
48614;BME280;34408;51.426;5.444;2023-03-03T13:25:15;102544.19;;;7.43;55.21
48614;BME280;34408;51.426;5.444;2023-03-03T13:27:51;102543.88;;;7.46;54.97
48614;BME280;34408;51.426;5.444;2023-03-03T13:30:29;102534.53;;;7.50;54.70
48614;BME280;34408;51.426;5.444;2023-03-03T13:33:06;102531.53;;;7.53;54.47
48614;BME280;34408;51.426;5.444;2023-03-03T13:35:41;102534.75;;;7.57;54.44
48614;BME280;34408;51.426;5.444;2023-03-03T13:38:13;102531.69;;;7.51;54.66
48614;BME280;34408;51.426;5.444;2023-03-03T13:40:47;102532.75;;;7.59;54.83
48614;BME280;34408;51.426;5.444;2023-03-03T13:43:18;102531.25;;;7.64;54.08